Washington, DC

2:09 PM EDT on August 20, 2014 (GMT -0400)
Eckington Pl, NE | Change Station
CLOSE
Current Station
Personal Weather Station
Location: Washington, DC
Elevation: 90 ft
Nearby Weather Stations

Elev 90 ft 38.91 °N, 77.01 °W | Updated 2 minutes ago

Scattered Clouds
Scattered Clouds
84.9 °F
Feels Like 87 °F
N
5.0
Wind Variable Wind from East
Gusts 13.0 mph

Today
High -- | Low -- °F
--% Chance of Precip.
Yesterday
High -- | Low -- °F
Precip. -- in
6:26 AM 7:56 PM
Waning Crescent, 20% visible
Pressure 29.96 in
Visibility 10.0 miles
Clouds Scattered Clouds 4500 ft
Scattered Clouds 11000 ft
Scattered Clouds 25000 ft
Heat Index 87 °F
Dew Point 66 °F
Humidity 54%
Rainfall -999.00 in
Snow Depth Not available.
UV 8 out of 12
Pollen 9.00 out of 12
Air Quality Not available.
Flu Activity Not available.
METAR KDCA 201752Z 19011KT 10SM SCT045 SCT110 SCT250 31/17 A2995 RMK AO2 SLP143 CB DSNT NW MOV NE T03060172 10306 20239 58018

More Conditions Fewer Conditions

Pressure 29.96 in
Visibility 10.0 miles
Clouds Scattered Clouds 4500 ft
Scattered Clouds 11000 ft
Scattered Clouds 25000 ft
Heat Index 87 °F
Dew Point 66 °F
Humidity 54%
Rainfall -999.00 in
Snow Depth Not available.
UV 8 out of 12
Pollen 9.00 out of 12
Air Quality Not available.
Flu Activity Not available.
METAR KDCA 201752Z 19011KT 10SM SCT045 SCT110 SCT250 31/17 A2995 RMK AO2 SLP143 CB DSNT NW MOV NE T03060172 10306 20239 58018

More Conditions Fewer Conditions

10-Day Weather Forecast

Almanac

Astronomy

Aug. 20, 2014 Rise Set
Actual Time 6:26 AM EDT 7:56 PM EDT
Civil Twilight 5:58 AM EDT 8:24 PM EDT
Nautical Twilight 5:24 AM EDT 8:57 PM EDT
Astronomical Twilight 4:48 AM EDT 9:33 PM EDT
Moon 2:05 AM EDT 4:38 PM EDT
Length of Visible Light 14h 26m
Length of Day
13h 29m
Tomorrow will be 2m 18s shorter.
Waning Crescent, 20% of the Moon is Illuminated
Today
Waning Crescent
Aug 25
New
Sep 2
First Quarter
Sep 8
Full
Sep 15
Last Quarter

Today's Extremes

State Highs State Lows

Community

WunderPhotos

Upload Photos

1,745,702 photos uploaded!

WunderBlogs® & News

Nearby

Snow Depth

Station Depth Elevation
No new snow has been reported.

Earthquake Activity

City Distance Mag. Time & Date
No recent earthquake activity has been reported nearby.
Minimum magnitude displayed is 2.5.

Coastal Water Temperatures

Place Temperature
Washington, DC 78.1 °F
Baltimore, MD 80.1 °F
Solomons Island, MD 81.0 °F

Nearby Weather Stations